Time;durP1;ratioP1;P1;durP2;ratioP2;P2;SDS_P1;SDS_P2;PMS_P1;PMS_P2;Temp;Humidity;BMP_temperature;BMP_pressure;BME280_temperature;BME280_humidity;BME280_pressure;Samples;Min_cycle;Max_cycle;Signal;HPM_P1;HPM_P2
2022/12/07 00:01:40;;;;;;;8.97;4.17;;;4.30;99.90;;;;;;5023097;28;36068;-81
2022/12/07 00:04:10;;;;;;;11.10;2.87;;;4.30;99.90;;;;;;5018538;28;37723;-81
2022/12/07 00:06:41;;;;;;;14.67;4.30;;;4.30;99.90;;;;;;5035772;28;38738;-81
2022/12/07 00:09:12;;;;;;;8.37;4.43;;;4.10;99.90;;;;;;5021129;28;38454;-81
2022/12/07 00:11:38;;;;;;;14.80;4.63;;;4.00;99.90;;;;;;5023008;28;36096;-81
2022/12/07 00:14:08;;;;;;;14.57;4.67;;;4.00;99.90;;;;;;5026455;28;41172;-81
2022/12/07 00:16:34;;;;;;;14.97;4.53;;;3.90;99.90;;;;;;5042152;28;38256;-81
2022/12/07 00:19:01;;;;;;;10.20;4.27;;;3.80;99.90;;;;;;5030009;28;37883;-81
2022/12/07 00:21:31;;;;;;;14.90;5.90;;;3.70;99.90;;;;;;5021217;28;46395;-81
2022/12/07 00:23:58;;;;;;;15.60;6.40;;;3.70;99.90;;;;;;5021509;28;37739;-81
2022/12/07 00:26:29;;;;;;;18.23;7.67;;;3.70;99.90;;;;;;5028947;28;37154;-82
2022/12/07 00:29:02;;;;;;;12.03;6.20;;;3.70;99.90;;;;;;5026699;28;38174;-81
2022/12/07 00:31:31;;;;;;;9.95;5.40;;;3.60;99.90;;;;;;5023767;28;47744;-82
2022/12/07 00:33:58;;;;;;;14.40;5.83;;;3.50;99.90;;;;;;5016777;28;37515;-80
2022/12/07 00:36:25;;;;;;;17.43;7.03;;;3.40;99.90;;;;;;5023969;28;38193;-82
2022/12/07 00:38:51;;;;;;;14.00;7.07;;;3.30;99.90;;;;;;5022212;28;36633;-81
2022/12/07 00:41:23;;;;;;;14.33;6.87;;;3.20;99.90;;;;;;5021025;28;36048;-80
2022/12/07 00:43:50;;;;;;;16.57;8.00;;;3.20;99.90;;;;;;5021025;28;38932;-81
2022/12/07 00:46:17;;;;;;;29.10;10.30;;;3.10;99.90;;;;;;5025140;28;37117;-81
2022/12/07 00:48:44;;;;;;;31.70;11.73;;;3.10;99.90;;;;;;5027136;28;36885;-82
2022/12/07 00:51:11;;;;;;;26.27;12.33;;;3.00;99.90;;;;;;5025619;28;36998;-81
2022/12/07 00:53:38;;;;;;;24.47;8.53;;;2.90;99.90;;;;;;5025816;28;39130;-82
2022/12/07 00:56:13;;;;;;;22.77;9.57;;;2.80;99.90;;;;;;5024914;28;37115;-82
2022/12/07 00:58:39;;;;;;;18.80;6.97;;;2.90;99.90;;;;;;5022575;28;46770;-82
2022/12/07 01:01:07;;;;;;;17.73;7.90;;;2.90;99.90;;;;;;5022135;28;36263;-81
2022/12/07 01:03:34;;;;;;;19.97;7.73;;;2.90;99.90;;;;;;5044285;28;37640;-82
2022/12/07 01:06:01;;;;;;;19.07;9.03;;;2.90;99.90;;;;;;5039130;28;38373;-82
2022/12/07 01:08:28;;;;;;;14.90;7.73;;;2.80;99.90;;;;;;5026317;28;36898;-82
2022/12/07 01:11:00;;;;;;;28.60;12.60;;;3.10;99.90;;;;;;5025319;28;37017;-82
2022/12/07 01:13:28;;;;;;;24.03;12.03;;;3.00;99.90;;;;;;5025167;28;38956;-83
2022/12/07 01:15:59;;;;;;;27.47;12.37;;;3.00;99.90;;;;;;5026751;28;38434;-82
2022/12/07 01:18:27;;;;;;;25.53;12.67;;;2.90;99.90;;;;;;5022496;28;37147;-81
2022/12/07 01:21:02;;;;;;;18.80;10.50;;;2.80;99.90;;;;;;5021521;28;36262;-81
2022/12/07 01:23:29;;;;;;;23.23;10.97;;;2.80;99.90;;;;;;5024175;28;39607;-81
2022/12/07 01:26:01;;;;;;;21.10;9.60;;;2.80;99.90;;;;;;5028171;28;37070;-82
2022/12/07 01:28:27;;;;;;;15.25;6.75;;;2.70;99.90;;;;;;5040981;28;36456;-82
2022/12/07 01:30:58;;;;;;;12.97;6.63;;;2.60;99.90;;;;;;5031270;28;35871;-82
2022/12/07 01:33:27;;;;;;;12.67;5.77;;;2.60;99.90;;;;;;5021169;28;38278;-81
2022/12/07 01:35:53;;;;;;;18.83;6.70;;;2.60;99.90;;;;;;5021290;28;39262;-81
2022/12/07 01:38:19;;;;;;;16.50;6.53;;;2.50;99.90;;;;;;5023002;28;37935;-81
2022/12/07 01:40:52;;;;;;;13.67;5.40;;;2.50;99.90;;;;;;5040011;28;35727;-81
2022/12/07 01:43:19;;;;;;;11.53;4.63;;;2.50;99.90;;;;;;5019095;28;39178;-81
2022/12/07 01:45:46;;;;;;;15.17;5.27;;;2.50;99.90;;;;;;5021136;28;37339;-81
2022/12/07 01:48:16;;;;;;;8.97;4.97;;;2.50;99.90;;;;;;5025196;28;38653;-82
2022/12/07 01:50:44;;;;;;;10.03;4.33;;;2.40;99.90;;;;;;5040168;28;36279;-81
2022/12/07 01:53:12;;;;;;;10.97;5.40;;;2.30;99.90;;;;;;5022547;28;37597;-82
2022/12/07 01:55:42;;;;;;;7.87;4.13;;;2.30;99.90;;;;;;5023087;28;38405;-82
2022/12/07 01:58:09;;;;;;;8.93;3.73;;;2.30;99.90;;;;;;5023938;28;37769;-81
2022/12/07 02:03:28;;;;;;;8.90;3.47;;;2.50;99.90;;;;;;5296037;22;20057;-76
2022/12/07 02:05:55;;;;;;;10.67;3.87;;;2.70;99.90;;;;;;5016113;28;37593;-76
2022/12/07 02:08:22;;;;;;;10.73;3.40;;;2.90;99.90;;;;;;5024078;28;38810;-76
2022/12/07 02:10:48;;;;;;;11.50;2.47;;;3.00;99.90;;;;;;5022803;28;36307;-76
2022/12/07 02:13:24;;;;;;;10.03;1.53;;;3.20;99.90;;;;;;5016227;28;38968;-77
2022/12/07 02:16:21;;;;;;;8.73;1.97;;;3.70;99.90;;;;;;5020663;28;38347;-76
2022/12/07 02:19:11;;;;;;;15.53;2.13;;;4.00;99.90;;;;;;5018854;28;48205;-75
2022/12/07 02:22:02;;;;;;;8.70;1.33;;;4.10;99.90;;;;;;5018246;28;45815;-76
2022/12/07 02:24:52;;;;;;;19.33;2.00;;;4.10;99.90;;;;;;5019111;28;47009;-76
2022/12/07 02:27:39;;;;;;;9.30;1.20;;;4.10;99.90;;;;;;5024288;28;38294;-76
2022/12/07 02:30:14;;;;;;;5.70;1.47;;;4.10;99.90;;;;;;5026865;28;40676;-76
2022/12/07 02:33:00;;;;;;;10.03;1.80;;;4.00;99.90;;;;;;5022309;28;38800;-76
2022/12/07 02:35:35;;;;;;;7.80;1.63;;;3.80;99.90;;;;;;5037972;28;39768;-76
2022/12/07 02:38:18;;;;;;;6.77;1.33;;;3.60;99.90;;;;;;5024398;28;37665;-76
2022/12/07 02:41:06;;;;;;;8.03;1.70;;;3.30;99.90;;;;;;5037470;28;47159;-76
2022/12/07 02:43:41;;;;;;;4.53;1.20;;;3.20;99.90;;;;;;5022821;28;48074;-77
2022/12/07 02:46:16;;;;;;;7.10;1.23;;;3.00;99.90;;;;;;5040284;28;37606;-77
2022/12/07 02:51:31;;;;;;;10.63;1.77;;;2.80;99.90;;;;;;5028399;28;48878;-77
2022/12/07 02:53:59;;;;;;;11.23;1.63;;;2.60;99.90;;;;;;5026660;28;37384;-77
2022/12/07 02:56:43;;;;;;;7.97;2.23;;;2.60;99.90;;;;;;5025297;28;39111;-77
2022/12/07 02:59:26;;;;;;;8.63;1.57;;;2.50;99.90;;;;;;5039146;28;37080;-76
2022/12/07 03:02:14;;;;;;;4.20;1.40;;;2.40;99.90;;;;;;5023420;28;37854;-77
2022/12/07 03:05:01;;;;;;;4.43;1.03;;;2.40;99.90;;;;;;5027220;28;48910;-76
2022/12/07 03:08:02;;;;;;;5.90;1.40;;;2.40;99.90;;;;;;5025074;28;38795;-77
2022/12/07 03:10:43;;;;;;;8.83;1.70;;;2.30;99.90;;;;;;5023474;28;47049;-77
2022/12/07 03:13:21;;;;;;;7.07;1.30;;;2.30;99.90;;;;;;5023847;28;36424;-75
2022/12/07 03:16:01;;;;;;;12.27;1.77;;;2.40;99.90;;;;;;5022464;28;38473;-75
2022/12/07 03:18:31;;;;;;;5.30;1.50;;;2.50;99.90;;;;;;5023432;28;37602;-76
2022/12/07 03:21:03;;;;;;;5.53;1.20;;;2.60;99.90;;;;;;5022492;28;38152;-76
2022/12/07 03:23:35;;;;;;;5.15;1.65;;;2.60;99.90;;;;;;5026523;28;48458;-76
2022/12/07 03:26:04;;;;;;;11.20;2.17;;;2.70;99.90;;;;;;5028739;28;37195;-76
2022/12/07 03:28:37;;;;;;;3.67;1.27;;;2.60;99.90;;;;;;5034039;28;49170;-77
2022/12/07 03:31:09;;;;;;;8.47;2.00;;;2.60;99.90;;;;;;5031273;28;37126;-76
2022/12/07 03:33:42;;;;;;;7.40;1.57;;;2.60;99.90;;;;;;5025833;28;47234;-76
2022/12/07 03:36:31;;;;;;;14.83;2.43;;;2.60;99.90;;;;;;5025966;28;35871;-76
2022/12/07 03:39:23;;;;;;;6.33;2.37;;;2.60;99.90;;;;;;5027182;28;38676;-76
2022/12/07 03:41:53;;;;;;;11.23;2.15;;;2.70;99.90;;;;;;5014185;28;49006;-76
2022/12/07 03:44:20;;;;;;;7.43;1.80;;;2.60;99.90;;;;;;5028126;28;37594;-76
2022/12/07 03:47:14;;;;;;;5.17;1.83;;;2.60;99.90;;;;;;5040271;28;36052;-76
2022/12/07 03:49:55;;;;;;;9.17;2.07;;;2.60;99.90;;;;;;5026662;28;49276;-77
2022/12/07 03:52:44;;;;;;;6.23;2.00;;;2.50;99.90;;;;;;5040500;28;37464;-76
2022/12/07 03:55:17;;;;;;;3.53;1.40;;;2.40;99.90;;;;;;5035499;28;36098;-76
2022/12/07 03:57:47;;;;;;;7.27;1.73;;;2.50;99.90;;;;;;5023520;28;36338;-76
2022/12/07 04:00:14;;;;;;;2.93;1.33;;;2.50;99.90;;;;;;5028959;28;39604;-76
2022/12/07 04:02:41;;;;;;;8.43;1.67;;;2.60;99.90;;;;;;5024648;28;39858;-76
2022/12/07 04:05:08;;;;;;;9.17;1.77;;;2.80;99.90;;;;;;5017350;28;39565;-77
2022/12/07 04:07:34;;;;;;;11.13;1.77;;;3.10;99.90;;;;;;5021384;28;37034;-76
2022/12/07 04:10:00;;;;;;;8.23;1.20;;;3.40;99.90;;;;;;5023682;28;39226;-76
2022/12/07 04:12:26;;;;;;;15.40;2.07;;;3.50;99.90;;;;;;5021615;28;39375;-76
2022/12/07 04:14:52;;;;;;;4.43;1.20;;;3.40;99.90;;;;;;5023026;28;38623;-76
2022/12/07 04:17:18;;;;;;;6.67;1.40;;;3.20;99.90;;;;;;5022820;28;38336;-76
2022/12/07 04:19:44;;;;;;;8.30;1.60;;;3.00;99.90;;;;;;5036003;28;37549;-76
2022/12/07 04:22:10;;;;;;;7.57;1.40;;;2.90;99.90;;;;;;5033569;28;37475;-76
2022/12/07 04:24:36;;;;;;;9.67;1.90;;;2.80;99.90;;;;;;5022299;28;38500;-76
2022/12/07 04:27:03;;;;;;;11.73;2.20;;;2.70;99.90;;;;;;5022619;28;37104;-77
2022/12/07 04:29:29;;;;;;;11.77;1.70;;;2.60;99.90;;;;;;5023373;28;37344;-76
2022/12/07 04:31:55;;;;;;;6.13;1.70;;;2.50;99.90;;;;;;5021573;28;37957;-78
2022/12/07 04:34:21;;;;;;;5.13;1.63;;;2.40;99.90;;;;;;5018577;28;37033;-76
2022/12/07 04:36:48;;;;;;;8.03;1.63;;;2.30;99.90;;;;;;5019314;28;34723;-77
2022/12/07 04:39:27;;;;;;;9.20;1.60;;;2.20;99.90;;;;;;5021357;28;40765;-76
2022/12/07 04:41:54;;;;;;;6.97;1.37;;;2.30;99.90;;;;;;5017097;28;39331;-76
2022/12/07 04:44:21;;;;;;;6.20;1.17;;;2.30;99.90;;;;;;5027910;28;38970;-76
2022/12/07 04:46:47;;;;;;;6.73;1.20;;;2.30;99.90;;;;;;5024848;28;36936;-76
2022/12/07 04:49:14;;;;;;;7.83;1.20;;;2.40;99.90;;;;;;5020276;28;38570;-76
2022/12/07 04:51:41;;;;;;;5.33;1.57;;;2.40;99.90;;;;;;5024023;28;38859;-76
2022/12/07 04:54:08;;;;;;;9.50;1.17;;;2.50;99.90;;;;;;5024093;28;39621;-76
2022/12/07 04:56:35;;;;;;;5.83;1.10;;;2.60;99.90;;;;;;5021071;28;35717;-76
2022/12/07 04:59:01;;;;;;;8.97;1.60;;;2.60;99.90;;;;;;5023377;28;38625;-76
2022/12/07 05:01:28;;;;;;;8.80;1.30;;;2.60;99.90;;;;;;5024767;28;38509;-77
2022/12/07 05:03:54;;;;;;;7.47;1.53;;;2.80;99.90;;;;;;5031009;28;36774;-77
2022/12/07 05:06:20;;;;;;;10.97;1.60;;;3.00;99.90;;;;;;5024885;28;36865;-76
2022/12/07 05:08:46;;;;;;;11.07;1.80;;;3.20;99.90;;;;;;5030499;28;39423;-76
2022/12/07 05:11:37;;;;;;;8.10;1.47;;;3.30;99.90;;;;;;5025699;28;39029;-76
2022/12/07 05:13:59;;;;;;;12.37;1.53;;;3.40;99.90;;;;;;5035766;28;38779;-76
2022/12/07 05:16:25;;;;;;;8.20;2.03;;;3.40;99.90;;;;;;5025077;28;36336;-76
2022/12/07 05:18:51;;;;;;;21.03;5.63;;;3.40;99.90;;;;;;5019333;28;37804;-76
2022/12/07 05:21:17;;;;;;;10.90;4.77;;;3.50;99.90;;;;;;5042070;28;37663;-77
2022/12/07 05:23:44;;;;;;;15.63;4.70;;;3.60;99.90;;;;;;5025465;28;38195;-76
2022/12/07 05:26:10;;;;;;;12.60;4.83;;;3.70;99.90;;;;;;5021756;28;36767;-76
2022/12/07 05:28:39;;;;;;;16.00;4.80;;;3.80;99.90;;;;;;5024242;28;38501;-76
2022/12/07 05:31:06;;;;;;;14.93;5.37;;;3.80;99.90;;;;;;5019805;28;37705;-77
2022/12/07 05:33:32;;;;;;;10.27;4.00;;;3.80;99.90;;;;;;5027536;28;37284;-76
2022/12/07 05:35:58;;;;;;;16.67;3.97;;;3.70;99.90;;;;;;5025335;28;37129;-76
2022/12/07 05:38:27;;;;;;;12.00;3.00;;;3.70;99.90;;;;;;5019202;28;39886;-76
2022/12/07 05:40:53;;;;;;;11.90;2.67;;;3.90;99.90;;;;;;5025860;28;37131;-77
2022/12/07 05:43:19;;;;;;;11.53;3.30;;;4.00;99.90;;;;;;5024302;28;37355;-74
2022/12/07 05:45:45;;;;;;;14.80;3.20;;;4.00;99.90;;;;;;5037700;28;35825;-76
2022/12/07 05:48:11;;;;;;;15.70;3.10;;;3.90;99.90;;;;;;5038441;28;37661;-76
2022/12/07 05:50:38;;;;;;;17.03;3.40;;;3.80;99.90;;;;;;5037092;28;39152;-74
2022/12/07 05:53:04;;;;;;;12.30;2.50;;;3.70;99.90;;;;;;5011919;28;37160;-75
2022/12/07 05:55:30;;;;;;;11.83;2.43;;;3.70;99.90;;;;;;5016474;28;38146;-76
2022/12/07 06:00:40;;;;;;;5.67;1.47;;;3.90;99.90;;;;;;5021161;28;49443;-76
2022/12/07 06:03:10;;;;;;;16.47;2.13;;;4.10;99.90;;;;;;5028158;28;38583;-77
2022/12/07 06:05:36;;;;;;;14.90;2.27;;;4.20;99.90;;;;;;5024446;28;36858;-76
2022/12/07 06:08:02;;;;;;;21.60;2.77;;;4.20;99.90;;;;;;5025044;28;38941;-76
2022/12/07 06:10:28;;;;;;;8.70;2.00;;;4.20;99.90;;;;;;5024452;28;46913;-76
2022/12/07 06:12:54;;;;;;;18.57;2.37;;;4.30;99.90;;;;;;5022890;28;36797;-76
2022/12/07 06:15:21;;;;;;;13.30;2.00;;;4.20;99.90;;;;;;5019542;28;37169;-74
2022/12/07 06:17:47;;;;;;;13.80;2.03;;;4.10;99.90;;;;;;5021016;28;38904;-75
2022/12/07 06:20:13;;;;;;;10.97;1.97;;;3.90;99.90;;;;;;5023785;28;37503;-76
2022/12/07 06:22:39;;;;;;;14.53;1.80;;;3.80;99.90;;;;;;5024205;28;37130;-75
2022/12/07 06:25:06;;;;;;;16.73;1.73;;;4.10;99.90;;;;;;5025808;28;35955;-75
2022/12/07 06:27:33;;;;;;;17.07;1.87;;;4.60;99.90;;;;;;5027788;28;38680;-75
2022/12/07 06:29:59;;;;;;;8.30;1.00;;;4.90;99.90;;;;;;5031531;28;37246;-75
2022/12/07 06:32:26;;;;;;;9.77;1.60;;;4.90;99.90;;;;;;5024452;28;38224;-76
2022/12/07 06:34:52;;;;;;;6.20;1.20;;;5.00;99.90;;;;;;5021986;28;37294;-79
2022/12/07 06:37:18;;;;;;;7.17;1.47;;;4.90;99.90;;;;;;5042393;28;37570;-74
2022/12/07 06:39:45;;;;;;;14.47;1.40;;;4.90;99.90;;;;;;5024308;28;38511;-74
2022/12/07 06:42:11;;;;;;;13.80;1.40;;;4.80;99.90;;;;;;5025350;28;38333;-75
2022/12/07 06:44:37;;;;;;;13.27;1.50;;;4.70;99.90;;;;;;5023443;28;36864;-76
2022/12/07 06:47:04;;;;;;;12.30;1.47;;;4.70;99.90;;;;;;5020044;28;38257;-75
2022/12/07 06:49:31;;;;;;;13.83;1.00;;;4.70;99.90;;;;;;5031209;28;38595;-75
2022/12/07 06:51:57;;;;;;;11.60;1.50;;;4.70;99.90;;;;;;5029098;28;38761;-75
2022/12/07 06:54:23;;;;;;;9.63;1.77;;;4.70;99.90;;;;;;5044870;28;36969;-75
2022/12/07 06:56:49;;;;;;;9.17;1.30;;;4.80;99.90;;;;;;5031444;28;38285;-75
2022/12/07 06:59:16;;;;;;;11.33;1.40;;;4.90;99.90;;;;;;5030586;28;39405;-75
2022/12/07 07:01:42;;;;;;;9.30;1.17;;;4.80;99.90;;;;;;5027384;28;37224;-75
2022/12/07 07:04:08;;;;;;;10.77;1.37;;;4.90;99.90;;;;;;5025343;28;36886;-75
2022/12/07 07:06:34;;;;;;;12.73;1.70;;;4.70;99.90;;;;;;5028746;28;40032;-75
2022/12/07 07:09:01;;;;;;;9.73;1.20;;;4.70;99.90;;;;;;5029463;28;37927;-75
2022/12/07 07:11:30;;;;;;;13.50;1.83;;;4.60;99.90;;;;;;5029308;28;39698;-74
2022/12/07 07:13:58;;;;;;;8.77;1.50;;;4.50;99.90;;;;;;5031970;28;37064;-75
2022/12/07 07:16:24;;;;;;;14.43;2.37;;;4.40;99.90;;;;;;5041611;28;37796;-74
2022/12/07 07:18:51;;;;;;;9.23;1.93;;;4.30;99.90;;;;;;5031322;28;37282;-74
2022/12/07 07:21:17;;;;;;;14.63;2.10;;;4.30;99.90;;;;;;5029306;28;37962;-74
2022/12/07 07:23:43;;;;;;;16.37;3.13;;;4.30;99.90;;;;;;5031654;28;37279;-75
2022/12/07 07:26:09;;;;;;;10.73;2.47;;;4.20;99.90;;;;;;5042530;28;39900;-74
2022/12/07 07:28:35;;;;;;;14.83;2.37;;;4.20;99.90;;;;;;5030588;28;36921;-74
2022/12/07 07:31:01;;;;;;;10.10;2.63;;;4.10;99.90;;;;;;5028938;28;37073;-75
2022/12/07 07:33:27;;;;;;;8.77;2.43;;;4.10;99.90;;;;;;5029316;28;37551;-75
2022/12/07 07:35:53;;;;;;;16.73;1.80;;;4.20;99.90;;;;;;5044268;28;37529;-74
2022/12/07 07:38:20;;;;;;;8.30;1.50;;;4.70;99.90;;;;;;5030954;28;37016;-74
2022/12/07 07:40:46;;;;;;;17.70;1.73;;;4.90;99.90;;;;;;5034160;28;38319;-74
2022/12/07 07:43:12;;;;;;;8.90;1.20;;;4.90;99.90;;;;;;5032062;28;36541;-73
2022/12/07 07:45:38;;;;;;;5.93;1.10;;;4.90;99.90;;;;;;5029358;28;37780;-74
2022/12/07 07:48:05;;;;;;;11.83;1.50;;;4.80;99.90;;;;;;5030349;28;37488;-74
2022/12/07 07:50:31;;;;;;;10.47;1.50;;;4.80;99.90;;;;;;5031258;28;38013;-75
2022/12/07 07:52:57;;;;;;;12.87;1.87;;;4.70;99.90;;;;;;5030469;28;35887;-74
2022/12/07 07:55:23;;;;;;;13.40;2.17;;;4.60;99.90;;;;;;5030061;28;38548;-74
2022/12/07 07:57:49;;;;;;;7.83;1.30;;;4.60;99.90;;;;;;5026981;28;38804;-74
2022/12/07 08:00:16;;;;;;;7.03;1.80;;;4.60;99.90;;;;;;5027145;28;39293;-75
2022/12/07 08:02:43;;;;;;;13.17;1.87;;;4.70;99.90;;;;;;5024106;28;37847;-75
2022/12/07 08:05:11;;;;;;;8.93;1.83;;;4.80;99.90;;;;;;5030604;28;38462;-75
2022/12/07 08:07:37;;;;;;;10.60;1.60;;;5.00;99.90;;;;;;5026965;28;37321;-75
2022/12/07 08:10:04;;;;;;;10.17;1.77;;;5.10;99.90;;;;;;5026489;28;37979;-72
2022/12/07 08:12:30;;;;;;;7.47;1.70;;;5.20;99.90;;;;;;5026659;28;48057;-73
2022/12/07 08:14:56;;;;;;;9.57;1.63;;;5.30;99.90;;;;;;5028047;28;38918;-73
2022/12/07 08:17:26;;;;;;;10.90;3.03;;;5.30;99.90;;;;;;5030701;28;37140;-72
2022/12/07 08:19:52;;;;;;;10.17;2.07;;;5.20;99.90;;;;;;5029464;28;36947;-73
2022/12/07 08:22:18;;;;;;;17.97;2.47;;;5.10;99.90;;;;;;5028015;28;37477;-74
2022/12/07 08:24:44;;;;;;;14.40;2.43;;;5.00;99.90;;;;;;5030786;28;39167;-73
2022/12/07 08:27:12;;;;;;;10.30;2.20;;;4.90;99.90;;;;;;5026355;28;20050;-73
2022/12/07 08:29:38;;;;;;;12.13;2.40;;;4.80;99.90;;;;;;5039134;28;37234;-73
2022/12/07 08:32:04;;;;;;;15.77;2.23;;;4.80;99.90;;;;;;5034340;28;37091;-73
2022/12/07 08:34:30;;;;;;;10.03;2.77;;;4.70;99.90;;;;;;5046079;28;38306;-73
2022/12/07 08:36:56;;;;;;;8.20;2.70;;;4.60;99.90;;;;;;5029675;28;37200;-74
2022/12/07 08:39:22;;;;;;;13.13;2.93;;;4.50;99.90;;;;;;5025688;28;37716;-73
2022/12/07 08:41:49;;;;;;;7.67;2.40;;;4.50;99.90;;;;;;5027382;28;37995;-72
2022/12/07 08:44:15;;;;;;;13.93;2.63;;;4.50;99.90;;;;;;5026141;28;39926;-73
2022/12/07 08:46:48;;;;;;;7.47;1.90;;;4.70;99.90;;;;;;5030408;28;38501;-73
2022/12/07 08:49:22;;;;;;;10.53;2.90;;;4.80;99.90;;;;;;5030640;28;40161;-73
2022/12/07 08:51:49;;;;;;;8.07;3.20;;;5.00;99.90;;;;;;5030601;28;35761;-73
2022/12/07 08:54:18;;;;;;;8.10;3.10;;;5.20;99.90;;;;;;5027390;28;38428;-74
2022/12/07 08:56:49;;;;;;;9.77;3.80;;;5.30;99.90;;;;;;5028702;28;38258;-74
2022/12/07 08:59:17;;;;;;;12.27;4.13;;;5.40;99.90;;;;;;5029829;28;38757;-74
2022/12/07 09:01:43;;;;;;;9.30;1.43;;;5.60;99.90;;;;;;5030127;28;37094;-74
2022/12/07 09:04:09;;;;;;;9.60;1.60;;;5.60;99.90;;;;;;5029920;28;38971;-73
2022/12/07 09:06:36;;;;;;;10.10;1.87;;;5.70;99.90;;;;;;5031498;28;37386;-74
2022/12/07 09:09:03;;;;;;;7.90;1.20;;;5.80;99.90;;;;;;5035021;28;37679;-73
2022/12/07 09:11:30;;;;;;;7.87;1.27;;;6.00;99.90;;;;;;5029472;28;36856;-73
2022/12/07 09:13:56;;;;;;;6.33;1.00;;;6.20;99.90;;;;;;5028435;28;37984;-73
2022/12/07 09:16:22;;;;;;;5.13;0.93;;;6.30;99.90;;;;;;5030425;28;39125;-73
2022/12/07 09:18:48;;;;;;;4.50;0.90;;;6.40;99.90;;;;;;5025636;28;38056;-73
2022/12/07 09:21:14;;;;;;;5.23;1.53;;;6.30;99.90;;;;;;5029582;28;37464;-73
2022/12/07 09:23:44;;;;;;;1.20;0.83;;;6.30;99.90;;;;;;5032136;28;38897;-73
2022/12/07 09:26:10;;;;;;;6.80;1.33;;;6.30;99.90;;;;;;5029589;28;37521;-73
2022/12/07 09:28:37;;;;;;;13.47;2.27;;;6.20;99.90;;;;;;5030519;28;36936;-73
2022/12/07 09:31:04;;;;;;;5.67;0.87;;;6.20;99.90;;;;;;5029867;28;35415;-73
2022/12/07 09:33:30;;;;;;;4.60;1.23;;;6.20;99.90;;;;;;5031881;28;49170;-73
2022/12/07 09:35:56;;;;;;;4.93;1.17;;;6.10;99.90;;;;;;5033165;28;37327;-73
2022/12/07 09:38:23;;;;;;;4.90;1.47;;;6.20;99.90;;;;;;5032833;28;37400;-73
2022/12/07 09:40:49;;;;;;;5.57;1.17;;;6.10;99.90;;;;;;5032351;28;36390;-73
2022/12/07 09:43:19;;;;;;;4.07;1.33;;;6.00;99.90;;;;;;5033151;28;38826;-73
2022/12/07 09:45:47;;;;;;;8.43;2.50;;;5.90;99.90;;;;;;5029438;28;38062;-73
2022/12/07 09:48:43;;;;;;;7.47;1.50;;;5.90;99.90;;;;;;5030428;28;38197;-73
2022/12/07 09:51:31;;;;;;;4.30;1.13;;;5.70;99.90;;;;;;5016141;28;38273;-73
2022/12/07 09:53:58;;;;;;;7.23;1.27;;;5.70;99.90;;;;;;5042898;28;37683;-73
2022/12/07 09:56:24;;;;;;;6.10;0.80;;;5.60;99.90;;;;;;5032976;28;39452;-73
2022/12/07 09:58:57;;;;;;;9.87;1.10;;;5.60;99.90;;;;;;5030592;28;36934;-73
2022/12/07 10:01:23;;;;;;;2.10;0.60;;;5.60;99.90;;;;;;5025077;28;37184;-73
2022/12/07 10:04:00;;;;;;;4.73;0.93;;;5.60;99.90;;;;;;5041711;28;37707;-73
2022/12/07 10:06:27;;;;;;;6.90;1.00;;;5.60;99.90;;;;;;5028877;28;37289;-74
2022/12/07 10:08:53;;;;;;;9.57;2.20;;;5.50;99.90;;;;;;5027723;28;36980;-74
2022/12/07 10:11:19;;;;;;;19.70;4.97;;;5.50;99.90;;;;;;5028697;28;38302;-73
2022/12/07 10:13:48;;;;;;;16.77;4.50;;;5.50;99.90;;;;;;5028652;28;38988;-73
2022/12/07 10:16:23;;;;;;;9.07;2.93;;;5.50;99.90;;;;;;5028506;28;38259;-73
2022/12/07 10:18:50;;;;;;;6.23;2.43;;;5.50;99.90;;;;;;5027391;28;36817;-73
2022/12/07 10:21:25;;;;;;;7.00;2.57;;;5.50;99.90;;;;;;5024285;28;38182;-73
2022/12/07 10:24:16;;;;;;;16.20;2.50;;;5.50;99.90;;;;;;5029455;28;38317;-73
2022/12/07 10:26:51;;;;;;;9.87;2.50;;;5.60;99.90;;;;;;5022428;28;47162;-74
2022/12/07 10:29:46;;;;;;;9.10;1.47;;;5.70;99.90;;;;;;5026952;28;37709;-73
2022/12/07 10:32:15;;;;;;;6.73;1.23;;;6.00;99.90;;;;;;5037971;28;35871;-72
2022/12/07 10:34:42;;;;;;;13.17;3.10;;;6.30;99.90;;;;;;5026198;28;37427;-73
2022/12/07 10:37:16;;;;;;;15.53;2.13;;;6.60;99.90;;;;;;5026749;28;37970;-73
2022/12/07 10:39:54;;;;;;;8.70;1.77;;;6.80;99.90;;;;;;5021569;28;37168;-73
2022/12/07 10:42:25;;;;;;;8.10;1.60;;;7.00;99.90;;;;;;5032061;28;36000;-74
2022/12/07 10:45:18;;;;;;;9.53;1.47;;;7.10;99.90;;;;;;5025626;28;37322;-74
2022/12/07 10:48:13;;;;;;;6.60;1.50;;;7.20;99.90;;;;;;5026426;28;48048;-74
2022/12/07 10:51:16;;;;;;;5.07;1.30;;;7.10;99.90;;;;;;5026226;28;46954;-74
2022/12/07 10:53:58;;;;;;;8.52;1.20;;;7.20;99.90;;;;;;5022078;28;47409;-73
2022/12/07 10:56:39;;;;;;;9.47;1.37;;;7.20;99.90;;;;;;5036589;28;37906;-74
2022/12/07 10:59:29;;;;;;;4.20;0.80;;;7.20;99.90;;;;;;5031132;28;36419;-75
2022/12/07 11:02:13;;;;;;;7.93;0.90;;;7.30;99.90;;;;;;5025461;28;47130;-75
2022/12/07 11:05:01;;;;;;;6.30;0.97;;;7.40;99.90;;;;;;5029964;28;48407;-74
2022/12/07 11:07:33;;;;;;;8.00;1.20;;;7.40;99.90;;;;;;5039058;28;37177;-74
2022/12/07 11:10:09;;;;;;;3.47;0.90;;;7.50;99.90;;;;;;5028904;28;37432;-74
2022/12/07 11:12:35;;;;;;;6.47;1.00;;;7.50;99.90;;;;;;5025250;28;48531;-74
2022/12/07 11:15:10;;;;;;;6.23;1.07;;;7.50;99.90;;;;;;5028575;28;36907;-74
2022/12/07 11:17:55;;;;;;;8.10;1.17;;;7.50;99.90;;;;;;5026541;28;49056;-75
2022/12/07 11:20:36;;;;;;;7.93;1.10;;;7.50;99.90;;;;;;5042081;28;37306;-74
2022/12/07 11:23:33;;;;;;;5.63;0.90;;;7.50;99.90;;;;;;5025616;28;38854;-74
2022/12/07 11:26:10;;;;;;;9.30;2.03;;;7.50;99.90;;;;;;5018747;28;35936;-74
2022/12/07 11:29:04;;;;;;;10.30;1.67;;;7.40;99.90;;;;;;5027878;28;48709;-75
2022/12/07 11:31:37;;;;;;;7.20;1.63;;;7.40;99.90;;;;;;5031048;28;49048;-74
2022/12/07 11:34:20;;;;;;;11.70;2.53;;;7.50;99.90;;;;;;5027185;28;37674;-75
2022/12/07 11:36:52;;;;;;;;;;;7.60;99.90;;;;;;5041354;28;39677;-75
2022/12/07 11:39:18;;;;;;;7.50;1.87;;;7.80;99.90;;;;;;5018243;28;37454;-75
2022/12/07 11:41:56;;;;;;;7.13;1.17;;;8.00;99.90;;;;;;5024178;28;36888;-75
2022/12/07 11:44:36;;;;;;;5.70;1.50;;;8.10;99.90;;;;;;5042813;28;36779;-75
2022/12/07 11:47:08;;;;;;;7.00;0.93;;;8.40;99.90;;;;;;5027451;28;37643;-75
2022/12/07 11:49:47;;;;;;;13.33;0.97;;;8.40;99.90;;;;;;5026525;28;38998;-75
2022/12/07 11:52:24;;;;;;;4.17;1.40;;;8.50;99.90;;;;;;5028027;28;36409;-74
2022/12/07 11:54:53;;;;;;;9.17;1.00;;;8.50;99.90;;;;;;5032469;28;38542;-75
2022/12/07 11:57:37;;;;;;;8.60;1.07;;;8.40;99.90;;;;;;5039341;28;35484;-74
2022/12/07 12:00:15;;;;;;;6.73;0.93;;;8.30;99.90;;;;;;5036778;28;37541;-75
2022/12/07 12:03:00;;;;;;;7.60;1.00;;;8.20;99.90;;;;;;5026070;28;48527;-75
2022/12/07 12:05:27;;;;;;;5.37;0.70;;;8.10;99.90;;;;;;5029861;28;38349;-75
2022/12/07 12:08:04;;;;;;;3.97;0.70;;;7.90;99.90;;;;;;5027003;28;36453;-74
2022/12/07 12:10:56;;;;;;;3.97;0.90;;;7.50;99.90;;;;;;5041507;28;46613;-74
2022/12/07 12:13:49;;;;;;;6.93;0.87;;;7.10;99.90;;;;;;5045210;28;38573;-75
2022/12/07 12:16:47;;;;;;;4.13;0.80;;;6.90;99.90;;;;;;5031025;28;38353;-75
2022/12/07 12:19:48;;;;;;;4.30;0.70;;;6.70;99.90;;;;;;5020052;28;35681;-75
2022/12/07 12:22:19;;;;;;;7.00;1.13;;;6.60;99.90;;;;;;5028330;28;36451;-75
2022/12/07 12:24:50;;;;;;;5.00;0.80;;;6.50;99.90;;;;;;5026025;28;37038;-75
2022/12/07 12:27:30;;;;;;;7.70;1.17;;;6.70;99.90;;;;;;5024622;28;38222;-74
2022/12/07 12:30:00;;;;;;;3.53;0.70;;;6.70;99.90;;;;;;5027096;28;37726;-75
2022/12/07 12:32:43;;;;;;;5.93;1.30;;;6.70;99.90;;;;;;5042720;28;37793;-75
2022/12/07 12:35:36;;;;;;;5.70;0.83;;;6.60;99.90;;;;;;5026638;28;38308;-75
2022/12/07 12:38:26;;;;;;;3.65;0.77;;;6.60;99.90;;;;;;5042608;28;36798;-75
2022/12/07 12:40:56;;;;;;;4.77;1.77;;;6.60;99.90;;;;;;5040084;28;36468;-76
2022/12/07 12:43:42;;;;;;;6.13;1.23;;;6.60;99.90;;;;;;5026536;28;39770;-75
2022/12/07 12:46:33;;;;;;;6.70;1.40;;;6.60;99.90;;;;;;5025873;28;38569;-74
2022/12/07 12:49:20;;;;;;;5.30;1.00;;;6.60;99.90;;;;;;5039992;28;38828;-74
2022/12/07 12:51:48;;;;;;;4.37;0.90;;;6.60;99.90;;;;;;5026608;28;49098;-74
2022/12/07 12:54:27;;;;;;;6.77;1.00;;;6.60;99.90;;;;;;5027036;28;38612;-74
2022/12/07 12:57:24;;;;;;;2.23;0.70;;;6.90;99.90;;;;;;5039101;28;39364;-74
2022/12/07 12:59:53;;;;;;;7.00;1.20;;;7.00;99.90;;;;;;5025851;28;48317;-74
2022/12/07 13:02:30;;;;;;;4.03;1.33;;;7.10;99.90;;;;;;5024937;28;34041;-75
2022/12/07 13:05:07;;;;;;;4.90;1.27;;;7.20;99.90;;;;;;5028331;28;39304;-75
2022/12/07 13:07:46;;;;;;;6.10;0.90;;;7.20;99.90;;;;;;5022665;28;47360;-75
2022/12/07 13:10:30;;;;;;;5.87;1.10;;;7.30;99.90;;;;;;5027041;28;38927;-75
2022/12/07 13:13:14;;;;;;;5.10;0.93;;;7.20;99.90;;;;;;5035458;28;36924;-75
2022/12/07 13:15:51;;;;;;;4.27;0.93;;;7.20;99.90;;;;;;5043201;28;47096;-74
2022/12/07 13:18:30;;;;;;;8.43;1.20;;;7.10;99.90;;;;;;5041001;28;37529;-74
2022/12/07 13:21:06;;;;;;;7.00;1.30;;;7.10;99.90;;;;;;5044983;28;36993;-74
2022/12/07 13:23:44;;;;;;;4.77;1.13;;;7.10;99.90;;;;;;5026331;28;48484;-75
2022/12/07 13:26:34;;;;;;;6.43;1.23;;;7.10;99.90;;;;;;5031230;28;35931;-74